sensor_id;sensor_type;location;lat;lon;timestamp;P1;durP1;ratioP1;P2;durP2;ratioP2
69417;SDS011;56610;48.872;2.400;2023-03-14T00:02:25;11.47;;;3.10;;
69417;SDS011;56610;48.872;2.400;2023-03-14T00:04:53;10.15;;;2.50;;
69417;SDS011;56610;48.872;2.400;2023-03-14T00:07:20;8.43;;;2.70;;
69417;SDS011;56610;48.872;2.400;2023-03-14T00:09:45;9.05;;;1.85;;
69417;SDS011;56610;48.872;2.400;2023-03-14T00:12:11;8.05;;;2.50;;
69417;SDS011;56610;48.872;2.400;2023-03-14T00:14:39;6.65;;;2.30;;
69417;SDS011;56610;48.872;2.400;2023-03-14T00:17:06;8.15;;;2.30;;
69417;SDS011;56610;48.872;2.400;2023-03-14T00:19:31;7.90;;;2.03;;
69417;SDS011;56610;48.872;2.400;2023-03-14T00:21:57;6.45;;;1.88;;
69417;SDS011;56610;48.872;2.400;2023-03-14T00:24:22;4.70;;;1.65;;
69417;SDS011;56610;48.872;2.400;2023-03-14T00:26:48;5.32;;;1.70;;
69417;SDS011;56610;48.872;2.400;2023-03-14T00:29:13;7.60;;;1.50;;
69417;SDS011;56610;48.872;2.400;2023-03-14T00:31:39;5.43;;;1.67;;
69417;SDS011;56610;48.872;2.400;2023-03-14T00:34:05;7.18;;;1.50;;
69417;SDS011;56610;48.872;2.400;2023-03-14T00:36:31;5.00;;;1.40;;
69417;SDS011;56610;48.872;2.400;2023-03-14T00:38:56;6.43;;;1.60;;
69417;SDS011;56610;48.872;2.400;2023-03-14T00:41:22;8.20;;;2.15;;
69417;SDS011;56610;48.872;2.400;2023-03-14T00:43:48;7.80;;;2.55;;
69417;SDS011;56610;48.872;2.400;2023-03-14T00:46:14;5.57;;;1.65;;
69417;SDS011;56610;48.872;2.400;2023-03-14T00:48:40;7.18;;;1.75;;
69417;SDS011;56610;48.872;2.400;2023-03-14T00:51:06;5.90;;;1.80;;
69417;SDS011;56610;48.872;2.400;2023-03-14T00:53:36;5.32;;;1.35;;
69417;SDS011;56610;48.872;2.400;2023-03-14T00:56:04;9.45;;;2.42;;
69417;SDS011;56610;48.872;2.400;2023-03-14T00:58:31;5.03;;;1.67;;
69417;SDS011;56610;48.872;2.400;2023-03-14T01:00:56;6.13;;;1.95;;
69417;SDS011;56610;48.872;2.400;2023-03-14T01:03:22;8.05;;;1.90;;
69417;SDS011;56610;48.872;2.400;2023-03-14T01:05:49;9.05;;;2.30;;
69417;SDS011;56610;48.872;2.400;2023-03-14T01:08:14;7.72;;;2.25;;
69417;SDS011;56610;48.872;2.400;2023-03-14T01:10:40;8.45;;;2.33;;
69417;SDS011;56610;48.872;2.400;2023-03-14T01:13:06;6.78;;;1.92;;
69417;SDS011;56610;48.872;2.400;2023-03-14T01:15:33;8.25;;;2.40;;
69417;SDS011;56610;48.872;2.400;2023-03-14T01:17:59;6.97;;;2.10;;
69417;SDS011;56610;48.872;2.400;2023-03-14T01:20:25;9.02;;;1.98;;
69417;SDS011;56610;48.872;2.400;2023-03-14T01:22:51;8.18;;;2.58;;
69417;SDS011;56610;48.872;2.400;2023-03-14T01:25:17;8.82;;;2.25;;
69417;SDS011;56610;48.872;2.400;2023-03-14T01:27:43;10.85;;;2.30;;
69417;SDS011;56610;48.872;2.400;2023-03-14T01:30:09;6.45;;;2.08;;
69417;SDS011;56610;48.872;2.400;2023-03-14T01:32:36;8.32;;;2.40;;
69417;SDS011;56610;48.872;2.400;2023-03-14T01:35:02;6.70;;;2.08;;
69417;SDS011;56610;48.872;2.400;2023-03-14T01:37:28;8.65;;;2.17;;
69417;SDS011;56610;48.872;2.400;2023-03-14T01:39:54;7.68;;;1.88;;
69417;SDS011;56610;48.872;2.400;2023-03-14T01:42:19;7.32;;;1.90;;
69417;SDS011;56610;48.872;2.400;2023-03-14T01:47:16;8.27;;;2.00;;
69417;SDS011;56610;48.872;2.400;2023-03-14T01:49:42;6.68;;;2.05;;
69417;SDS011;56610;48.872;2.400;2023-03-14T01:52:10;7.43;;;2.07;;
69417;SDS011;56610;48.872;2.400;2023-03-14T01:54:37;8.63;;;1.90;;
69417;SDS011;56610;48.872;2.400;2023-03-14T01:57:14;8.30;;;2.10;;
69417;SDS011;56610;48.872;2.400;2023-03-14T01:59:54;6.40;;;1.90;;
69417;SDS011;56610;48.872;2.400;2023-03-14T02:02:24;7.00;;;1.80;;
69417;SDS011;56610;48.872;2.400;2023-03-14T02:04:52;7.65;;;2.00;;
69417;SDS011;56610;48.872;2.400;2023-03-14T02:09:49;4.97;;;1.65;;
69417;SDS011;56610;48.872;2.400;2023-03-14T02:12:15;6.38;;;1.63;;
69417;SDS011;56610;48.872;2.400;2023-03-14T02:14:42;5.53;;;1.85;;
69417;SDS011;56610;48.872;2.400;2023-03-14T02:17:12;4.88;;;1.40;;
69417;SDS011;56610;48.872;2.400;2023-03-14T02:22:50;4.85;;;1.20;;
69417;SDS011;56610;48.872;2.400;2023-03-14T02:25:17;4.35;;;1.30;;
69417;SDS011;56610;48.872;2.400;2023-03-14T02:28:08;3.72;;;1.27;;
69417;SDS011;56610;48.872;2.400;2023-03-14T02:30:35;3.60;;;1.10;;
69417;SDS011;56610;48.872;2.400;2023-03-14T02:33:08;5.20;;;1.30;;
69417;SDS011;56610;48.872;2.400;2023-03-14T02:35:43;3.53;;;1.00;;
69417;SDS011;56610;48.872;2.400;2023-03-14T02:38:26;4.22;;;1.15;;
69417;SDS011;56610;48.872;2.400;2023-03-14T02:40:58;3.33;;;0.93;;
69417;SDS011;56610;48.872;2.400;2023-03-14T02:43:24;2.63;;;0.77;;
69417;SDS011;56610;48.872;2.400;2023-03-14T02:45:50;2.55;;;0.70;;
69417;SDS011;56610;48.872;2.400;2023-03-14T02:50:51;2.05;;;0.80;;
69417;SDS011;56610;48.872;2.400;2023-03-14T02:53:21;4.18;;;1.25;;
69417;SDS011;56610;48.872;2.400;2023-03-14T02:55:50;3.22;;;1.30;;
69417;SDS011;56610;48.872;2.400;2023-03-14T02:58:16;2.60;;;0.68;;
69417;SDS011;56610;48.872;2.400;2023-03-14T03:00:43;3.50;;;0.80;;
69417;SDS011;56610;48.872;2.400;2023-03-14T03:03:08;1.63;;;0.75;;
69417;SDS011;56610;48.872;2.400;2023-03-14T03:05:34;1.73;;;0.68;;
69417;SDS011;56610;48.872;2.400;2023-03-14T03:07:59;3.25;;;0.80;;
69417;SDS011;56610;48.872;2.400;2023-03-14T03:10:26;4.38;;;1.00;;
69417;SDS011;56610;48.872;2.400;2023-03-14T03:12:52;3.53;;;1.00;;
69417;SDS011;56610;48.872;2.400;2023-03-14T03:15:18;2.85;;;0.82;;
69417;SDS011;56610;48.872;2.400;2023-03-14T03:17:43;2.17;;;1.00;;
69417;SDS011;56610;48.872;2.400;2023-03-14T03:20:09;3.08;;;0.60;;
69417;SDS011;56610;48.872;2.400;2023-03-14T03:22:35;2.33;;;0.70;;
69417;SDS011;56610;48.872;2.400;2023-03-14T03:25:02;1.27;;;0.60;;
69417;SDS011;56610;48.872;2.400;2023-03-14T03:27:32;2.40;;;0.80;;
69417;SDS011;56610;48.872;2.400;2023-03-14T03:30:00;2.08;;;0.90;;
69417;SDS011;56610;48.872;2.400;2023-03-14T03:32:25;2.63;;;0.93;;
69417;SDS011;56610;48.872;2.400;2023-03-14T03:34:51;1.60;;;0.50;;
69417;SDS011;56610;48.872;2.400;2023-03-14T03:37:17;1.77;;;0.80;;
69417;SDS011;56610;48.872;2.400;2023-03-14T03:39:43;2.03;;;0.82;;
69417;SDS011;56610;48.872;2.400;2023-03-14T03:42:08;2.28;;;0.88;;
69417;SDS011;56610;48.872;2.400;2023-03-14T03:44:34;2.58;;;0.70;;
69417;SDS011;56610;48.872;2.400;2023-03-14T03:47:00;2.05;;;0.68;;
69417;SDS011;56610;48.872;2.400;2023-03-14T03:49:29;0.90;;;0.40;;
69417;SDS011;56610;48.872;2.400;2023-03-14T03:51:55;0.95;;;0.40;;
69417;SDS011;56610;48.872;2.400;2023-03-14T03:54:21;1.17;;;0.50;;
69417;SDS011;56610;48.872;2.400;2023-03-14T03:56:47;2.58;;;0.75;;
69417;SDS011;56610;48.872;2.400;2023-03-14T03:59:12;1.63;;;0.50;;
69417;SDS011;56610;48.872;2.400;2023-03-14T04:01:38;0.73;;;0.40;;
69417;SDS011;56610;48.872;2.400;2023-03-14T04:04:03;2.45;;;0.60;;
69417;SDS011;56610;48.872;2.400;2023-03-14T04:06:29;1.02;;;0.40;;
69417;SDS011;56610;48.872;2.400;2023-03-14T04:08:55;1.30;;;0.95;;
69417;SDS011;56610;48.872;2.400;2023-03-14T04:11:20;1.52;;;0.63;;
69417;SDS011;56610;48.872;2.400;2023-03-14T04:13:46;1.55;;;0.60;;
69417;SDS011;56610;48.872;2.400;2023-03-14T04:19:03;1.33;;;0.50;;
69417;SDS011;56610;48.872;2.400;2023-03-14T04:21:29;0.75;;;0.30;;
69417;SDS011;56610;48.872;2.400;2023-03-14T04:23:54;1.45;;;0.73;;
69417;SDS011;56610;48.872;2.400;2023-03-14T04:26:20;0.50;;;0.30;;
69417;SDS011;56610;48.872;2.400;2023-03-14T04:28:45;0.50;;;0.30;;
69417;SDS011;56610;48.872;2.400;2023-03-14T04:31:13;0.32;;;0.30;;
69417;SDS011;56610;48.872;2.400;2023-03-14T04:33:43;1.25;;;0.32;;
69417;SDS011;56610;48.872;2.400;2023-03-14T04:36:09;0.30;;;0.20;;
69417;SDS011;56610;48.872;2.400;2023-03-14T04:38:35;1.55;;;0.32;;
69417;SDS011;56610;48.872;2.400;2023-03-14T04:41:00;0.43;;;0.22;;
69417;SDS011;56610;48.872;2.400;2023-03-14T04:43:26;1.85;;;0.35;;
69417;SDS011;56610;48.872;2.400;2023-03-14T04:45:56;0.85;;;0.20;;
69417;SDS011;56610;48.872;2.400;2023-03-14T04:48:23;0.85;;;0.30;;
69417;SDS011;56610;48.872;2.400;2023-03-14T04:50:49;0.52;;;0.20;;
69417;SDS011;56610;48.872;2.400;2023-03-14T04:53:15;0.95;;;0.30;;
69417;SDS011;56610;48.872;2.400;2023-03-14T04:55:42;0.68;;;0.30;;
69417;SDS011;56610;48.872;2.400;2023-03-14T04:58:07;1.15;;;0.30;;
69417;SDS011;56610;48.872;2.400;2023-03-14T05:00:33;1.38;;;0.40;;
69417;SDS011;56610;48.872;2.400;2023-03-14T05:02:58;2.83;;;0.73;;
69417;SDS011;56610;48.872;2.400;2023-03-14T05:05:24;3.30;;;1.10;;
69417;SDS011;56610;48.872;2.400;2023-03-14T05:07:50;4.40;;;1.50;;
69417;SDS011;56610;48.872;2.400;2023-03-14T05:10:16;4.47;;;1.45;;
69417;SDS011;56610;48.872;2.400;2023-03-14T05:13:02;5.28;;;1.38;;
69417;SDS011;56610;48.872;2.400;2023-03-14T05:15:27;5.85;;;1.70;;
69417;SDS011;56610;48.872;2.400;2023-03-14T05:17:53;6.97;;;2.28;;
69417;SDS011;56610;48.872;2.400;2023-03-14T05:20:21;7.43;;;1.90;;
69417;SDS011;56610;48.872;2.400;2023-03-14T05:22:47;8.52;;;2.58;;
69417;SDS011;56610;48.872;2.400;2023-03-14T05:25:13;7.05;;;1.83;;
69417;SDS011;56610;48.872;2.400;2023-03-14T05:27:39;7.25;;;2.10;;
69417;SDS011;56610;48.872;2.400;2023-03-14T05:30:05;6.80;;;2.00;;
69417;SDS011;56610;48.872;2.400;2023-03-14T05:32:31;8.25;;;2.28;;
69417;SDS011;56610;48.872;2.400;2023-03-14T05:34:57;6.65;;;2.10;;
69417;SDS011;56610;48.872;2.400;2023-03-14T05:37:24;6.82;;;2.45;;
69417;SDS011;56610;48.872;2.400;2023-03-14T05:39:51;8.20;;;2.47;;
69417;SDS011;56610;48.872;2.400;2023-03-14T05:42:16;7.85;;;2.20;;
69417;SDS011;56610;48.872;2.400;2023-03-14T05:44:42;9.07;;;2.05;;
69417;SDS011;56610;48.872;2.400;2023-03-14T05:47:07;8.45;;;2.17;;
69417;SDS011;56610;48.872;2.400;2023-03-14T05:49:36;11.32;;;2.65;;
69417;SDS011;56610;48.872;2.400;2023-03-14T05:52:01;8.38;;;2.05;;
69417;SDS011;56610;48.872;2.400;2023-03-14T05:54:27;8.65;;;2.10;;
69417;SDS011;56610;48.872;2.400;2023-03-14T05:56:53;7.72;;;2.55;;
69417;SDS011;56610;48.872;2.400;2023-03-14T05:59:18;10.30;;;2.35;;
69417;SDS011;56610;48.872;2.400;2023-03-14T06:01:44;7.28;;;1.98;;
69417;SDS011;56610;48.872;2.400;2023-03-14T06:04:09;10.50;;;2.72;;
69417;SDS011;56610;48.872;2.400;2023-03-14T06:06:35;8.75;;;2.30;;
69417;SDS011;56610;48.872;2.400;2023-03-14T06:09:00;5.78;;;1.70;;
69417;SDS011;56610;48.872;2.400;2023-03-14T06:11:26;8.57;;;1.77;;
69417;SDS011;56610;48.872;2.400;2023-03-14T06:13:51;8.18;;;2.22;;
69417;SDS011;56610;48.872;2.400;2023-03-14T06:16:17;8.30;;;2.05;;
69417;SDS011;56610;48.872;2.400;2023-03-14T06:18:43;6.45;;;1.80;;
69417;SDS011;56610;48.872;2.400;2023-03-14T06:21:11;8.13;;;2.15;;
69417;SDS011;56610;48.872;2.400;2023-03-14T06:23:36;6.13;;;1.92;;
69417;SDS011;56610;48.872;2.400;2023-03-14T06:26:02;8.98;;;2.30;;
69417;SDS011;56610;48.872;2.400;2023-03-14T06:28:28;7.68;;;2.28;;
69417;SDS011;56610;48.872;2.400;2023-03-14T06:30:53;9.88;;;2.45;;
69417;SDS011;56610;48.872;2.400;2023-03-14T06:33:19;7.82;;;2.10;;
69417;SDS011;56610;48.872;2.400;2023-03-14T06:35:44;7.13;;;1.98;;
69417;SDS011;56610;48.872;2.400;2023-03-14T06:38:10;11.02;;;2.22;;
69417;SDS011;56610;48.872;2.400;2023-03-14T06:40:35;7.05;;;2.05;;
69417;SDS011;56610;48.872;2.400;2023-03-14T06:43:01;7.93;;;2.03;;
69417;SDS011;56610;48.872;2.400;2023-03-14T06:45:26;8.88;;;2.60;;
69417;SDS011;56610;48.872;2.400;2023-03-14T06:47:52;8.32;;;1.75;;
69417;SDS011;56610;48.872;2.400;2023-03-14T06:50:18;12.02;;;2.10;;
69417;SDS011;56610;48.872;2.400;2023-03-14T06:52:43;6.43;;;1.90;;
69417;SDS011;56610;48.872;2.400;2023-03-14T06:55:13;7.07;;;2.40;;
69417;SDS011;56610;48.872;2.400;2023-03-14T06:57:42;6.63;;;2.10;;
69417;SDS011;56610;48.872;2.400;2023-03-14T07:00:09;8.15;;;2.35;;
69417;SDS011;56610;48.872;2.400;2023-03-14T07:02:35;9.68;;;2.15;;
69417;SDS011;56610;48.872;2.400;2023-03-14T07:05:01;8.30;;;1.80;;
69417;SDS011;56610;48.872;2.400;2023-03-14T07:07:27;7.05;;;2.50;;
69417;SDS011;56610;48.872;2.400;2023-03-14T07:09:53;8.85;;;2.38;;
69417;SDS011;56610;48.872;2.400;2023-03-14T07:12:18;9.15;;;2.28;;
69417;SDS011;56610;48.872;2.400;2023-03-14T07:14:44;8.98;;;2.70;;
69417;SDS011;56610;48.872;2.400;2023-03-14T07:17:10;10.32;;;2.60;;
69417;SDS011;56610;48.872;2.400;2023-03-14T07:19:35;8.60;;;2.40;;
69417;SDS011;56610;48.872;2.400;2023-03-14T07:22:02;9.87;;;2.53;;
69417;SDS011;56610;48.872;2.400;2023-03-14T07:24:29;8.18;;;2.45;;
69417;SDS011;56610;48.872;2.400;2023-03-14T07:26:54;10.30;;;2.30;;
69417;SDS011;56610;48.872;2.400;2023-03-14T07:29:20;9.40;;;2.40;;
69417;SDS011;56610;48.872;2.400;2023-03-14T07:31:46;7.20;;;2.05;;
69417;SDS011;56610;48.872;2.400;2023-03-14T07:34:11;9.15;;;2.17;;
69417;SDS011;56610;48.872;2.400;2023-03-14T07:36:37;8.68;;;2.28;;
69417;SDS011;56610;48.872;2.400;2023-03-14T07:39:02;8.23;;;2.40;;
69417;SDS011;56610;48.872;2.400;2023-03-14T07:41:29;14.85;;;2.72;;
69417;SDS011;56610;48.872;2.400;2023-03-14T07:43:55;9.88;;;2.83;;
69417;SDS011;56610;48.872;2.400;2023-03-14T07:46:20;11.50;;;2.20;;
69417;SDS011;56610;48.872;2.400;2023-03-14T07:48:46;13.38;;;2.47;;
69417;SDS011;56610;48.872;2.400;2023-03-14T07:51:12;7.53;;;2.30;;
69417;SDS011;56610;48.872;2.400;2023-03-14T07:53:37;10.85;;;2.30;;
69417;SDS011;56610;48.872;2.400;2023-03-14T07:56:04;12.65;;;2.55;;
69417;SDS011;56610;48.872;2.400;2023-03-14T07:58:30;11.27;;;2.45;;
69417;SDS011;56610;48.872;2.400;2023-03-14T08:00:55;7.80;;;2.05;;
69417;SDS011;56610;48.872;2.400;2023-03-14T08:03:23;9.23;;;2.45;;
69417;SDS011;56610;48.872;2.400;2023-03-14T08:05:49;12.13;;;2.38;;
69417;SDS011;56610;48.872;2.400;2023-03-14T08:08:15;9.23;;;2.60;;
69417;SDS011;56610;48.872;2.400;2023-03-14T08:10:42;7.45;;;2.30;;
69417;SDS011;56610;48.872;2.400;2023-03-14T08:13:08;10.20;;;2.78;;
69417;SDS011;56610;48.872;2.400;2023-03-14T08:15:37;8.32;;;2.22;;
69417;SDS011;56610;48.872;2.400;2023-03-14T08:18:03;8.15;;;2.53;;
69417;SDS011;56610;48.872;2.400;2023-03-14T08:20:30;11.13;;;2.22;;
69417;SDS011;56610;48.872;2.400;2023-03-14T08:22:59;6.57;;;2.13;;
69417;SDS011;56610;48.872;2.400;2023-03-14T08:25:25;10.95;;;2.22;;
69417;SDS011;56610;48.872;2.400;2023-03-14T08:27:52;12.40;;;2.07;;
69417;SDS011;56610;48.872;2.400;2023-03-14T08:30:19;8.15;;;2.03;;
69417;SDS011;56610;48.872;2.400;2023-03-14T08:32:45;7.20;;;2.20;;
69417;SDS011;56610;48.872;2.400;2023-03-14T08:35:14;9.52;;;2.63;;
69417;SDS011;56610;48.872;2.400;2023-03-14T08:37:40;8.15;;;2.30;;
69417;SDS011;56610;48.872;2.400;2023-03-14T08:40:07;8.25;;;2.30;;
69417;SDS011;56610;48.872;2.400;2023-03-14T08:42:37;8.73;;;2.20;;
69417;SDS011;56610;48.872;2.400;2023-03-14T08:45:03;12.98;;;2.60;;
69417;SDS011;56610;48.872;2.400;2023-03-14T08:47:29;7.90;;;2.20;;
69417;SDS011;56610;48.872;2.400;2023-03-14T08:49:55;10.48;;;2.45;;
69417;SDS011;56610;48.872;2.400;2023-03-14T08:52:21;10.57;;;2.05;;
69417;SDS011;56610;48.872;2.400;2023-03-14T08:54:46;9.00;;;2.50;;
69417;SDS011;56610;48.872;2.400;2023-03-14T08:57:12;8.77;;;2.30;;
69417;SDS011;56610;48.872;2.400;2023-03-14T08:59:38;7.78;;;2.22;;
69417;SDS011;56610;48.872;2.400;2023-03-14T09:02:04;8.75;;;2.53;;
69417;SDS011;56610;48.872;2.400;2023-03-14T09:04:30;8.27;;;1.98;;
69417;SDS011;56610;48.872;2.400;2023-03-14T09:06:57;7.43;;;2.03;;
69417;SDS011;56610;48.872;2.400;2023-03-14T09:09:23;7.43;;;2.15;;
69417;SDS011;56610;48.872;2.400;2023-03-14T09:11:52;8.73;;;2.63;;
69417;SDS011;56610;48.872;2.400;2023-03-14T09:14:18;6.18;;;2.15;;
69417;SDS011;56610;48.872;2.400;2023-03-14T09:16:43;6.45;;;2.08;;
69417;SDS011;56610;48.872;2.400;2023-03-14T09:19:09;9.35;;;2.50;;
69417;SDS011;56610;48.872;2.400;2023-03-14T09:21:35;7.03;;;1.63;;
69417;SDS011;56610;48.872;2.400;2023-03-14T09:24:01;7.28;;;2.13;;
69417;SDS011;56610;48.872;2.400;2023-03-14T09:26:27;6.50;;;1.40;;
69417;SDS011;56610;48.872;2.400;2023-03-14T09:28:52;6.85;;;2.00;;
69417;SDS011;56610;48.872;2.400;2023-03-14T09:31:18;6.63;;;1.85;;
69417;SDS011;56610;48.872;2.400;2023-03-14T09:33:43;8.38;;;2.40;;
69417;SDS011;56610;48.872;2.400;2023-03-14T09:36:09;6.50;;;1.90;;
69417;SDS011;56610;48.872;2.400;2023-03-14T09:38:35;6.45;;;1.83;;
69417;SDS011;56610;48.872;2.400;2023-03-14T09:41:01;6.07;;;1.70;;
69417;SDS011;56610;48.872;2.400;2023-03-14T09:43:37;6.10;;;1.30;;
69417;SDS011;56610;48.872;2.400;2023-03-14T09:46:04;5.50;;;1.60;;
69417;SDS011;56610;48.872;2.400;2023-03-14T09:48:31;6.80;;;1.65;;
69417;SDS011;56610;48.872;2.400;2023-03-14T09:50:59;5.70;;;1.75;;
69417;SDS011;56610;48.872;2.400;2023-03-14T09:53:36;3.67;;;1.27;;
69417;SDS011;56610;48.872;2.400;2023-03-14T09:56:07;6.50;;;1.60;;
69417;SDS011;56610;48.872;2.400;2023-03-14T09:58:39;8.63;;;1.63;;
69417;SDS011;56610;48.872;2.400;2023-03-14T10:01:09;5.90;;;1.75;;
69417;SDS011;56610;48.872;2.400;2023-03-14T10:03:39;7.38;;;1.67;;
69417;SDS011;56610;48.872;2.400;2023-03-14T10:06:11;5.78;;;1.73;;
69417;SDS011;56610;48.872;2.400;2023-03-14T10:08:41;4.35;;;1.02;;
69417;SDS011;56610;48.872;2.400;2023-03-14T10:11:11;4.95;;;1.50;;
69417;SDS011;56610;48.872;2.400;2023-03-14T10:16:31;3.55;;;1.17;;
69417;SDS011;56610;48.872;2.400;2023-03-14T10:19:02;6.25;;;1.60;;
69417;SDS011;56610;48.872;2.400;2023-03-14T10:21:30;5.78;;;1.42;;
69417;SDS011;56610;48.872;2.400;2023-03-14T10:24:18;5.90;;;1.35;;
69417;SDS011;56610;48.872;2.400;2023-03-14T10:26:52;5.10;;;1.58;;
69417;SDS011;56610;48.872;2.400;2023-03-14T10:29:29;6.43;;;1.48;;
69417;SDS011;56610;48.872;2.400;2023-03-14T10:32:00;6.40;;;1.60;;
69417;SDS011;56610;48.872;2.400;2023-03-14T10:34:34;9.07;;;2.00;;
69417;SDS011;56610;48.872;2.400;2023-03-14T10:37:22;5.80;;;1.77;;
69417;SDS011;56610;48.872;2.400;2023-03-14T10:39:51;6.53;;;2.00;;
69417;SDS011;56610;48.872;2.400;2023-03-14T10:44:46;8.07;;;1.60;;
69417;SDS011;56610;48.872;2.400;2023-03-14T10:47:19;6.00;;;1.40;;
69417;SDS011;56610;48.872;2.400;2023-03-14T10:49:47;5.45;;;1.88;;
69417;SDS011;56610;48.872;2.400;2023-03-14T10:54:40;5.95;;;1.75;;
69417;SDS011;56610;48.872;2.400;2023-03-14T10:57:10;4.63;;;1.30;;
69417;SDS011;56610;48.872;2.400;2023-03-14T10:59:37;8.02;;;1.92;;
69417;SDS011;56610;48.872;2.400;2023-03-14T11:05:09;6.45;;;1.75;;
69417;SDS011;56610;48.872;2.400;2023-03-14T11:07:40;5.85;;;1.30;;
69417;SDS011;56610;48.872;2.400;2023-03-14T11:13:06;5.13;;;1.40;;
69417;SDS011;56610;48.872;2.400;2023-03-14T11:16:02;4.57;;;1.75;;
69417;SDS011;56610;48.872;2.400;2023-03-14T11:21:24;6.10;;;1.92;;
69417;SDS011;56610;48.872;2.400;2023-03-14T11:29:55;6.72;;;1.50;;
69417;SDS011;56610;48.872;2.400;2023-03-14T11:35:37;4.70;;;1.58;;
69417;SDS011;56610;48.872;2.400;2023-03-14T11:40:42;4.80;;;1.70;;
69417;SDS011;56610;48.872;2.400;2023-03-14T11:43:11;6.75;;;1.90;;
69417;SDS011;56610;48.872;2.400;2023-03-14T11:46:08;7.22;;;1.73;;
69417;SDS011;56610;48.872;2.400;2023-03-14T11:48:39;3.03;;;1.30;;
69417;SDS011;56610;48.872;2.400;2023-03-14T11:51:29;5.90;;;1.60;;
69417;SDS011;56610;48.872;2.400;2023-03-14T11:54:14;3.47;;;1.23;;
69417;SDS011;56610;48.872;2.400;2023-03-14T11:57:19;4.93;;;1.77;;
69417;SDS011;56610;48.872;2.400;2023-03-14T12:10:51;4.85;;;1.55;;
69417;SDS011;56610;48.872;2.400;2023-03-14T12:13:19;4.13;;;1.70;;
69417;SDS011;56610;48.872;2.400;2023-03-14T12:15:50;5.35;;;1.33;;
69417;SDS011;56610;48.872;2.400;2023-03-14T12:21:08;4.77;;;1.50;;
69417;SDS011;56610;48.872;2.400;2023-03-14T12:23:37;6.20;;;1.73;;
69417;SDS011;56610;48.872;2.400;2023-03-14T12:26:16;5.72;;;1.77;;
69417;SDS011;56610;48.872;2.400;2023-03-14T12:31:35;3.75;;;1.42;;
69417;SDS011;56610;48.872;2.400;2023-03-14T12:36:48;4.75;;;1.45;;
69417;SDS011;56610;48.872;2.400;2023-03-14T12:49:43;4.60;;;1.35;;
69417;SDS011;56610;48.872;2.400;2023-03-14T12:52:21;6.07;;;1.70;;
69417;SDS011;56610;48.872;2.400;2023-03-14T12:54:59;3.25;;;1.30;;
69417;SDS011;56610;48.872;2.400;2023-03-14T12:57:28;6.18;;;1.55;;
69417;SDS011;56610;48.872;2.400;2023-03-14T13:00:23;6.15;;;1.85;;
69417;SDS011;56610;48.872;2.400;2023-03-14T13:11:26;5.43;;;1.38;;
69417;SDS011;56610;48.872;2.400;2023-03-14T13:13:57;4.72;;;1.48;;
69417;SDS011;56610;48.872;2.400;2023-03-14T13:16:24;4.68;;;1.80;;
69417;SDS011;56610;48.872;2.400;2023-03-14T13:19:00;3.67;;;1.30;;
69417;SDS011;56610;48.872;2.400;2023-03-14T13:21:40;3.90;;;1.10;;
69417;SDS011;56610;48.872;2.400;2023-03-14T13:24:07;5.50;;;1.40;;
69417;SDS011;56610;48.872;2.400;2023-03-14T13:26:45;4.60;;;1.40;;
69417;SDS011;56610;48.872;2.400;2023-03-14T13:29:19;4.47;;;1.40;;
69417;SDS011;56610;48.872;2.400;2023-03-14T13:31:53;10.02;;;1.38;;
69417;SDS011;56610;48.872;2.400;2023-03-14T13:34:33;3.65;;;1.40;;
69417;SDS011;56610;48.872;2.400;2023-03-14T13:36:59;4.35;;;1.58;;
69417;SDS011;56610;48.872;2.400;2023-03-14T13:39:26;4.32;;;1.58;;
69417;SDS011;56610;48.872;2.400;2023-03-14T13:41:54;5.60;;;1.48;;
69417;SDS011;56610;48.872;2.400;2023-03-14T13:44:25;5.22;;;1.50;;
69417;SDS011;56610;48.872;2.400;2023-03-14T13:47:01;6.82;;;1.50;;
69417;SDS011;56610;48.872;2.400;2023-03-14T13:49:28;7.90;;;2.00;;
69417;SDS011;56610;48.872;2.400;2023-03-14T13:51:57;5.53;;;1.90;;
69417;SDS011;56610;48.872;2.400;2023-03-14T13:54:23;4.70;;;1.27;;
69417;SDS011;56610;48.872;2.400;2023-03-14T13:57:01;5.00;;;1.48;;
69417;SDS011;56610;48.872;2.400;2023-03-14T13:59:33;6.15;;;1.35;;
69417;SDS011;56610;48.872;2.400;2023-03-14T14:02:14;5.40;;;0.95;;
69417;SDS011;56610;48.872;2.400;2023-03-14T14:04:40;3.08;;;1.00;;
69417;SDS011;56610;48.872;2.400;2023-03-14T14:07:07;5.50;;;1.20;;
69417;SDS011;56610;48.872;2.400;2023-03-14T14:09:37;4.93;;;1.40;;
69417;SDS011;56610;48.872;2.400;2023-03-14T14:15:25;3.70;;;1.52;;
69417;SDS011;56610;48.872;2.400;2023-03-14T14:17:42;3.15;;;1.10;;
69417;SDS011;56610;48.872;2.400;2023-03-14T14:20:22;4.47;;;1.17;;
69417;SDS011;56610;48.872;2.400;2023-03-14T14:22:59;5.65;;;1.40;;
69417;SDS011;56610;48.872;2.400;2023-03-14T14:25:27;4.47;;;1.38;;
69417;SDS011;56610;48.872;2.400;2023-03-14T14:27:54;3.83;;;0.80;;
69417;SDS011;56610;48.872;2.400;2023-03-14T14:32:49;3.45;;;0.95;;
69417;SDS011;56610;48.872;2.400;2023-03-14T14:37:55;3.25;;;1.10;;
69417;SDS011;56610;48.872;2.400;2023-03-14T14:40:22;1.95;;;0.75;;
69417;SDS011;56610;48.872;2.400;2023-03-14T14:42:50;3.70;;;1.10;;
69417;SDS011;56610;48.872;2.400;2023-03-14T14:45:17;2.88;;;1.10;;
69417;SDS011;56610;48.872;2.400;2023-03-14T14:47:59;2.92;;;1.13;;
69417;SDS011;56610;48.872;2.400;2023-03-14T14:50:31;3.13;;;1.00;;
69417;SDS011;56610;48.872;2.400;2023-03-14T14:55:29;0.98;;;0.50;;
69417;SDS011;56610;48.872;2.400;2023-03-14T14:58:11;1.17;;;0.60;;
69417;SDS011;56610;48.872;2.400;2023-03-14T15:00:49;1.80;;;0.60;;
69417;SDS011;56610;48.872;2.400;2023-03-14T15:03:19;1.60;;;0.60;;
69417;SDS011;56610;48.872;2.400;2023-03-14T15:05:45;1.30;;;0.70;;
69417;SDS011;56610;48.872;2.400;2023-03-14T15:08:11;2.17;;;0.47;;
69417;SDS011;56610;48.872;2.400;2023-03-14T15:10:37;2.22;;;0.68;;
69417;SDS011;56610;48.872;2.400;2023-03-14T15:13:03;2.33;;;0.70;;
69417;SDS011;56610;48.872;2.400;2023-03-14T15:15:28;1.95;;;0.70;;
69417;SDS011;56610;48.872;2.400;2023-03-14T15:17:54;0.57;;;0.52;;
69417;SDS011;56610;48.872;2.400;2023-03-14T15:20:20;5.03;;;1.00;;
69417;SDS011;56610;48.872;2.400;2023-03-14T15:22:48;1.48;;;1.08;;
69417;SDS011;56610;48.872;2.400;2023-03-14T15:25:14;2.28;;;0.77;;
69417;SDS011;56610;48.872;2.400;2023-03-14T15:27:40;3.00;;;0.80;;
69417;SDS011;56610;48.872;2.400;2023-03-14T15:30:14;1.80;;;0.70;;
69417;SDS011;56610;48.872;2.400;2023-03-14T15:32:40;2.88;;;1.05;;
69417;SDS011;56610;48.872;2.400;2023-03-14T15:35:06;2.83;;;0.82;;
69417;SDS011;56610;48.872;2.400;2023-03-14T15:37:32;3.75;;;0.90;;
69417;SDS011;56610;48.872;2.400;2023-03-14T15:39:58;2.83;;;0.98;;
69417;SDS011;56610;48.872;2.400;2023-03-14T15:42:23;2.55;;;1.08;;
69417;SDS011;56610;48.872;2.400;2023-03-14T15:44:49;4.00;;;1.10;;
69417;SDS011;56610;48.872;2.400;2023-03-14T15:47:15;2.58;;;1.13;;
69417;SDS011;56610;48.872;2.400;2023-03-14T15:49:41;4.80;;;1.20;;
69417;SDS011;56610;48.872;2.400;2023-03-14T15:52:07;3.90;;;1.20;;
69417;SDS011;56610;48.872;2.400;2023-03-14T15:54:34;2.95;;;1.10;;
69417;SDS011;56610;48.872;2.400;2023-03-14T15:57:00;5.65;;;1.30;;
69417;SDS011;56610;48.872;2.400;2023-03-14T15:59:25;4.00;;;1.08;;
69417;SDS011;56610;48.872;2.400;2023-03-14T16:01:51;7.88;;;1.40;;
69417;SDS011;56610;48.872;2.400;2023-03-14T16:04:17;2.50;;;1.00;;
69417;SDS011;56610;48.872;2.400;2023-03-14T16:06:43;4.28;;;0.95;;
69417;SDS011;56610;48.872;2.400;2023-03-14T16:09:12;6.20;;;1.50;;
69417;SDS011;56610;48.872;2.400;2023-03-14T16:11:38;4.07;;;1.55;;
69417;SDS011;56610;48.872;2.400;2023-03-14T16:14:04;3.22;;;1.10;;
69417;SDS011;56610;48.872;2.400;2023-03-14T16:16:30;4.53;;;1.33;;
69417;SDS011;56610;48.872;2.400;2023-03-14T16:18:56;4.63;;;1.30;;
69417;SDS011;56610;48.872;2.400;2023-03-14T16:21:21;4.53;;;1.70;;
69417;SDS011;56610;48.872;2.400;2023-03-14T16:23:47;6.13;;;1.63;;
69417;SDS011;56610;48.872;2.400;2023-03-14T16:26:16;5.57;;;1.23;;